»·PEaware :: N935RT KBFL-KMHV

N935RT :: KBFL-KMHV

FLIGHT INFORMATION

Flight Status: Arrived
Operator: Privately registered:
United States
More flights under this callsign
Pilot: Ryan M. (45333)
Aircraft: CESSNA 152 AEROBAT
(C152)
More flights by this aircraft type
Origin: KBFL Meadows
United States
Destination: KMHV Mojave
United States
More flights between these airports :: More routes between these airports
Route:
File this flight plan on PilotEdge
Remarks:
Altitude:
(Current/Filed)
5,500ft
Speed:
(Current/Filed)
100kts
Departed: 31-Oct-23 12:17 PM
Arrived: 31-Oct-23 01:00 PM
Distance/Time
Traveled:
50nm/0:43
Distance/Time
To Go:
Arrived

Flight Plot

Page will automatically refresh every two minutes.


Map Options




Map Legend


Flown Route
Filed Route
Departure Airport
Arrival Airport
Navaid (VOR, NDB)
Fix

Horizontal Profiles

Position Reports

Time Latitude Longitude Heading Altitude Ground
Speed
31-Oct-23 12:01 35.427744 -119.044625 316 477ft 0kts
31-Oct-23 12:02 35.427744 -119.044625 316 477ft 0kts
31-Oct-23 12:03 35.427744 -119.044625 316 477ft 0kts
31-Oct-23 12:04 35.427744 -119.044625 316 477ft 0kts
31-Oct-23 12:05 35.427744 -119.044625 316 477ft 0kts
31-Oct-23 12:06 35.427744 -119.044625 316 477ft 0kts
31-Oct-23 12:07 35.427744 -119.044625 316 477ft 0kts
31-Oct-23 12:08 35.427744 -119.044625 316 477ft 0kts
31-Oct-23 12:09 35.427744 -119.044625 316 477ft 0kts
31-Oct-23 12:10 35.427744 -119.044625 316 505ft 0kts
31-Oct-23 12:11 35.427744 -119.044625 316 505ft 0kts
31-Oct-23 12:12 35.427744 -119.044625 316 505ft 0kts
31-Oct-23 12:13 35.427137 -119.044609 163 474ft 15kts
31-Oct-23 12:14 35.425720 -119.044751 225 471ft 0kts
31-Oct-23 12:14 35.425720 -119.044751 225 471ft 0kts
31-Oct-23 12:16 35.425499 -119.045465 273 472ft 15kts
31-Oct-23 12:17 35.428398 -119.049569 314 498ft 65kts
31-Oct-23 12:18 35.444124 -119.064457 345 1265ft 76kts
31-Oct-23 12:19 35.455445 -119.046584 128 1605ft 87kts
31-Oct-23 12:20 35.438228 -119.026652 144 2128ft 84kts
31-Oct-23 12:20 35.421775 -119.015289 148 2677ft 80kts
31-Oct-23 12:21 35.404574 -119.001367 135 3319ft 72kts
31-Oct-23 12:23 35.400288 -118.974069 91 4079ft 71kts
31-Oct-23 12:24 35.404792 -118.950423 67 4653ft 74kts
31-Oct-23 12:24 35.414988 -118.933583 67 5141ft 74kts
31-Oct-23 12:25 35.409526 -118.909411 115 5532ft 87kts
31-Oct-23 12:26 35.396178 -118.882032 122 5604ft 95kts
31-Oct-23 12:27 35.381243 -118.855301 125 5654ft 95kts
31-Oct-23 12:28 35.366241 -118.828767 122 5559ft 96kts
31-Oct-23 12:29 35.352568 -118.801926 118 5840ft 77kts
31-Oct-23 12:30 35.341484 -118.780964 115 6412ft 72kts
31-Oct-23 12:31 35.332406 -118.758652 110 6848ft 73kts
31-Oct-23 12:32 35.323462 -118.735748 112 7255ft 74kts
31-Oct-23 12:33 35.312418 -118.712118 117 7523ft 91kts
31-Oct-23 12:34 35.299187 -118.683825 114 7538ft 97kts
31-Oct-23 12:35 35.288398 -118.653680 113 7471ft 98kts
31-Oct-23 12:36 35.275564 -118.624937 111 7482ft 95kts
31-Oct-23 12:37 35.262715 -118.596302 115 7518ft 96kts
31-Oct-23 12:38 35.249203 -118.568273 103 7426ft 92kts
31-Oct-23 12:39 35.238196 -118.539673 115 7326ft 89kts
31-Oct-23 12:40 35.226080 -118.514647 116 7453ft 83kts
31-Oct-23 12:41 35.213946 -118.490113 110 7468ft 84kts
31-Oct-23 12:42 35.201827 -118.464729 113 7527ft 91kts
31-Oct-23 12:43 35.186783 -118.440065 117 7663ft 90kts
31-Oct-23 12:44 35.170199 -118.416883 113 7851ft 90kts
31-Oct-23 12:45 35.151894 -118.394411 122 7906ft 94kts
31-Oct-23 12:46 35.142622 -118.366905 98 7853ft 87kts
31-Oct-23 12:47 35.135798 -118.338584 100 7606ft 85kts
31-Oct-23 12:48 35.125793 -118.311755 117 7292ft 83kts
31-Oct-23 12:49 35.115869 -118.286925 105 6057ft 88kts
31-Oct-23 12:50 35.104585 -118.261070 117 5656ft 88kts
31-Oct-23 12:51 35.092956 -118.236094 107 5052ft 82kts
31-Oct-23 12:52 35.082974 -118.210270 111 4278ft 83kts
31-Oct-23 12:53 35.072394 -118.186659 121 3736ft 78kts
31-Oct-23 12:54 35.054557 -118.170042 143 3696ft 88kts
31-Oct-23 12:55 35.037994 -118.151759 118 3780ft 77kts
31-Oct-23 12:56 35.023682 -118.131914 126 3812ft 69kts
31-Oct-23 12:57 35.028301 -118.117776 7 3478ft 65kts
31-Oct-23 12:58 35.043556 -118.129544 326 2742ft 63kts
31-Oct-23 12:59 35.048708 -118.136483 245 2712ft 11kts
31-Oct-23 13:00 35.048481 -118.137052 253 2704ft 0kts
31-Oct-23 13:01 35.050501 -118.140041 313 2715ft 16kts
31-Oct-23 13:02 35.050615 -118.143608 225 2724ft 9kts
31-Oct-23 13:03 35.048987 -118.148685 227 2739ft 13kts

Navigation Log

Ident Type
Flight plan parsing failed, navigation log unavailable